Pagina principale
METAR-TAF:

METAR-TAF

Aeroporti :

Aeroporto di Sármellék

Hévíz, Ungheria

latitudine: 46-41-11N, longitudine: 017-09-33E, altezza: 124 m

Osservazione

Il bollettino è stato emesso 50 minuti fa, alle 09:15 UTC
Vento 7 kt da nord-ovest
Temperature 16°C
Umidità 72%
Pressione 1023 hPa
Visibilità: 9000 m
Nuvoloso ad un'altezza di 4900 ft
Nuvoloso ad un'altezza di 9100 ft

METAR: LHSM 310915Z AUTO 32007KT 9000 BKN049 BKN091 16/11 Q1023 NOSIG

Ora: 11:05 (10:05 UTC)

Previsione

Il bollettino è stato emesso 1 ora e 50 minuti fa, alle 08:15 UTC
Previsione valida dal 31 alle 09 UTC al 31 alle 18 UTC
Vento 5 kt da nord
Visibilità: 9000 m

TAF: LHSM 310815Z 3109/3118 35005KT 9000 NSC

Osservazioni e previsioni meteorologiche di più di 4000 aeroporti (messaggi METAR e TAF).

Le stazioni disponibili sono rappresentate dai dischi gialli e rossi sulla carta.

Puntare il mouse per vedere il nome della stazione.

Clicca sopra per visualizzare le osservazioni e previsioni meteorologiche.

Per cambiare la mappa : fare clic sui pulsanti verdi con una croce nera per ingrandire, il pulsante verde con un trattino per diminuire, o sulla freccia verde per le mappe adiacenti.


METAR-TAF: